createdAt,value
2022-10-20T00:01:29.131Z,12.77
2022-10-20T00:03:57.005Z,11.18
2022-10-20T00:06:32.113Z,12.13
2022-10-20T00:09:03.133Z,10.40
2022-10-20T00:11:32.040Z,9.98
2022-10-20T00:14:01.673Z,12.23
2022-10-20T00:16:31.721Z,10.52
2022-10-20T00:18:59.468Z,17.58
2022-10-20T00:21:29.291Z,25.33
2022-10-20T00:23:59.893Z,15.57
2022-10-20T00:26:29.828Z,11.00
2022-10-20T00:28:58.249Z,18.90
2022-10-20T00:33:54.459Z,15.63
2022-10-20T00:36:23.666Z,13.80
2022-10-20T00:38:56.108Z,13.40
2022-10-20T00:41:23.321Z,11.45
2022-10-20T00:44:00.832Z,15.02
2022-10-20T00:46:41.470Z,12.10
2022-10-20T00:49:25.506Z,11.98
2022-10-20T00:51:55.067Z,10.52
2022-10-20T00:54:29.081Z,13.00
2022-10-20T00:56:59.047Z,12.25
2022-10-20T00:59:33.968Z,14.38
2022-10-20T01:02:02.861Z,11.98
2022-10-20T01:04:31.843Z,11.85
2022-10-20T01:06:59.612Z,11.13
2022-10-20T01:09:28.257Z,10.95
2022-10-20T01:15:15.951Z,14.20
2022-10-20T01:17:54.527Z,11.00
2022-10-20T01:20:55.898Z,9.15
2022-10-20T01:24:12.284Z,11.30
2022-10-20T01:27:13.282Z,13.95
2022-10-20T01:30:00.147Z,10.38
2022-10-20T01:32:38.484Z,15.38
2022-10-20T01:38:41.322Z,8.63
2022-10-20T01:41:34.377Z,13.25
2022-10-20T01:44:10.004Z,9.65
2022-10-20T01:46:42.027Z,12.07
2022-10-20T01:49:10.461Z,11.23
2022-10-20T01:54:07.387Z,15.13
2022-10-20T01:57:14.670Z,13.98
2022-10-20T02:00:11.570Z,11.57
2022-10-20T02:03:31.818Z,9.82
2022-10-20T02:06:18.663Z,14.65
2022-10-20T02:08:55.940Z,20.65
2022-10-20T02:11:38.181Z,17.13
2022-10-20T02:14:09.887Z,12.15
2022-10-20T02:16:49.014Z,13.65
2022-10-20T02:19:22.402Z,12.43
2022-10-20T02:21:52.833Z,12.52
2022-10-20T02:24:26.947Z,11.77
2022-10-20T02:26:59.018Z,13.73
2022-10-20T02:29:37.371Z,16.77
2022-10-20T02:34:32.788Z,14.02
2022-10-20T02:37:00.032Z,12.90
2022-10-20T02:39:27.800Z,11.05
2022-10-20T02:41:55.194Z,12.90
2022-10-20T02:44:23.121Z,9.57
2022-10-20T02:46:50.501Z,13.70
2022-10-20T02:49:18.058Z,10.45
2022-10-20T02:51:45.316Z,11.87
2022-10-20T02:54:12.493Z,9.32
2022-10-20T02:56:39.852Z,12.75
2022-10-20T02:59:07.091Z,8.18
2022-10-20T03:01:34.456Z,12.93
2022-10-20T03:04:04.166Z,9.90
2022-10-20T03:06:31.479Z,7.82
2022-10-20T03:08:58.844Z,9.83
2022-10-20T03:11:26.169Z,11.50
2022-10-20T03:13:53.466Z,9.90
2022-10-20T03:16:20.962Z,10.30
2022-10-20T03:18:48.351Z,13.30
2022-10-20T03:21:15.596Z,11.52
2022-10-20T03:23:42.886Z,10.77
2022-10-20T03:26:12.047Z,9.32
2022-10-20T03:28:40.515Z,11.57
2022-10-20T03:31:08.821Z,10.82
2022-10-20T03:33:36.487Z,10.60
2022-10-20T03:36:04.707Z,8.77
2022-10-20T03:38:32.041Z,6.43
2022-10-20T03:40:59.437Z,6.63
2022-10-20T03:43:26.798Z,7.75
2022-10-20T03:46:07.745Z,7.90
2022-10-20T03:48:36.003Z,6.63
2022-10-20T03:51:05.382Z,6.00
2022-10-20T03:53:33.902Z,5.53
2022-10-20T03:58:33.847Z,6.55
2022-10-20T04:01:03.819Z,7.33
2022-10-20T04:03:31.523Z,9.73
2022-10-20T04:05:58.903Z,7.80
2022-10-20T04:08:26.221Z,10.35
2022-10-20T04:10:53.459Z,11.70
2022-10-20T04:13:20.697Z,9.30
2022-10-20T04:15:47.930Z,11.85
2022-10-20T04:18:15.175Z,8.57
2022-10-20T04:20:44.515Z,8.43
2022-10-20T04:23:12.576Z,8.88
2022-10-20T04:25:47.702Z,10.02
2022-10-20T04:28:18.825Z,14.18
2022-10-20T04:30:47.563Z,8.48
2022-10-20T04:33:15.177Z,9.70
2022-10-20T04:35:43.469Z,9.80
2022-10-20T04:40:38.279Z,10.60
2022-10-20T04:43:05.551Z,11.77
2022-10-20T04:45:32.909Z,6.28
2022-10-20T04:48:00.283Z,13.95
2022-10-20T04:50:35.920Z,12.50
2022-10-20T04:53:03.355Z,11.90
2022-10-20T04:55:30.636Z,12.20
2022-10-20T04:57:58.431Z,10.50
2022-10-20T05:00:25.965Z,9.57
2022-10-20T05:02:53.267Z,15.40
2022-10-20T05:05:20.808Z,8.98
2022-10-20T05:07:48.060Z,7.50
2022-10-20T05:10:15.375Z,7.80
2022-10-20T05:12:42.651Z,9.98
2022-10-20T05:15:10.196Z,9.90
2022-10-20T05:17:37.729Z,13.00
2022-10-20T05:20:06.051Z,7.57
2022-10-20T05:22:33.407Z,8.85
2022-10-20T05:25:24.512Z,13.57
2022-10-20T05:27:48.291Z,10.37
2022-10-20T05:30:15.707Z,16.45
2022-10-20T05:32:42.945Z,11.23
2022-10-20T05:35:10.234Z,10.05
2022-10-20T05:37:39.180Z,13.52
2022-10-20T05:40:07.763Z,12.13
2022-10-20T05:42:35.323Z,9.65
2022-10-20T05:45:03.120Z,15.73
2022-10-20T05:47:30.588Z,10.80
2022-10-20T05:49:58.289Z,7.60
2022-10-20T05:52:25.643Z,7.97
2022-10-20T05:54:52.937Z,8.73
2022-10-20T05:57:20.185Z,8.80
2022-10-20T05:59:47.409Z,15.07
2022-10-20T06:02:14.629Z,11.50
2022-10-20T06:04:41.888Z,11.90
2022-10-20T06:07:10.138Z,17.00
2022-10-20T06:09:39.175Z,17.20
2022-10-20T06:14:41.026Z,14.32
2022-10-20T06:17:09.492Z,25.27
2022-10-20T06:22:06.797Z,19.60
2022-10-20T06:24:34.684Z,19.40
2022-10-20T06:27:02.116Z,25.27
2022-10-20T06:29:29.380Z,19.08
2022-10-20T06:31:57.135Z,26.80
2022-10-20T06:34:27.426Z,22.85
2022-10-20T06:36:54.820Z,32.58
2022-10-20T06:39:25.272Z,25.55
2022-10-20T06:41:54.852Z,32.75
2022-10-20T06:44:24.936Z,24.23
2022-10-20T06:46:52.671Z,23.00
2022-10-20T06:49:20.975Z,15.20
2022-10-20T06:51:48.433Z,13.52
2022-10-20T06:54:16.409Z,9.73
2022-10-20T06:56:44.173Z,11.65
2022-10-20T06:59:11.734Z,16.70
2022-10-20T07:01:40.119Z,7.22
2022-10-20T07:06:46.199Z,10.38
2022-10-20T07:09:17.524Z,10.15
2022-10-20T07:11:46.029Z,12.27
2022-10-20T07:14:14.197Z,10.55
2022-10-20T07:16:41.550Z,9.80
2022-10-20T07:19:09.309Z,17.77
2022-10-20T07:21:39.119Z,10.23
2022-10-20T07:24:09.379Z,20.15
2022-10-20T07:26:40.669Z,18.63
2022-10-20T07:29:12.398Z,12.35
2022-10-20T07:31:46.397Z,12.80
2022-10-20T07:34:27.143Z,8.85
2022-10-20T07:36:57.058Z,11.48
2022-10-20T07:39:25.466Z,13.20
2022-10-20T07:44:22.274Z,12.02
2022-10-20T07:46:50.200Z,7.83
2022-10-20T07:49:42.842Z,7.60
2022-10-20T07:52:05.145Z,7.85
2022-10-20T07:54:32.764Z,11.07
2022-10-20T07:56:59.944Z,8.63
2022-10-20T07:59:27.231Z,7.13
2022-10-20T08:01:57.427Z,6.28
2022-10-20T08:04:26.166Z,11.32
2022-10-20T08:06:53.709Z,8.38
2022-10-20T08:09:21.026Z,13.53
2022-10-20T08:11:51.443Z,7.03
2022-10-20T08:14:21.803Z,9.18
2022-10-20T08:16:55.417Z,6.75
2022-10-20T08:19:29.838Z,5.95
2022-10-20T08:21:57.269Z,9.50
2022-10-20T08:24:24.478Z,8.65
2022-10-20T08:26:51.778Z,6.60
2022-10-20T08:29:19.095Z,10.70
2022-10-20T08:31:46.299Z,7.28
2022-10-20T08:34:13.508Z,12.25
2022-10-20T08:36:40.721Z,8.82
2022-10-20T08:39:08.059Z,6.05
2022-10-20T08:42:06.218Z,7.07
2022-10-20T08:44:35.125Z,11.45
2022-10-20T08:47:06.067Z,9.63
2022-10-20T08:49:35.501Z,7.90
2022-10-20T08:52:03.701Z,7.18
2022-10-20T08:54:34.555Z,8.50
2022-10-20T08:57:02.017Z,6.50
2022-10-20T08:59:39.976Z,9.15
2022-10-20T09:02:17.667Z,6.85
2022-10-20T09:04:55.850Z,7.88
2022-10-20T09:07:25.386Z,11.23
2022-10-20T09:09:58.140Z,7.88
2022-10-20T09:12:30.255Z,10.00
2022-10-20T09:14:58.304Z,10.15
2022-10-20T09:17:25.759Z,18.77
2022-10-20T09:19:58.600Z,10.02
2022-10-20T09:22:35.517Z,9.65
2022-10-20T09:25:04.989Z,13.02
2022-10-20T09:27:36.125Z,22.25
2022-10-20T09:30:35.672Z,9.05
2022-10-20T09:33:32.899Z,8.57
2022-10-20T09:36:10.584Z,10.53
2022-10-20T09:38:43.432Z,7.03
2022-10-20T09:41:23.922Z,10.98
2022-10-20T09:43:58.740Z,11.02
2022-10-20T09:46:32.520Z,9.82
2022-10-20T09:49:00.188Z,11.13
2022-10-20T09:51:30.157Z,8.48
2022-10-20T09:54:15.175Z,9.52
2022-10-20T09:56:46.785Z,9.60
2022-10-20T09:59:40.409Z,9.43
2022-10-20T10:02:16.470Z,9.68
2022-10-20T10:04:47.604Z,9.63
2022-10-20T10:07:26.642Z,10.80
2022-10-20T10:10:25.244Z,8.32
2022-10-20T10:12:55.974Z,7.88
2022-10-20T10:15:23.320Z,6.85
2022-10-20T10:17:51.700Z,5.35
2022-10-20T10:20:38.444Z,8.77
2022-10-20T10:23:34.116Z,8.10
2022-10-20T10:26:03.111Z,6.28
2022-10-20T10:28:40.307Z,7.55
2022-10-20T10:31:20.099Z,9.25
2022-10-20T10:33:51.091Z,9.13
2022-10-20T10:36:36.069Z,7.75
2022-10-20T10:39:07.375Z,6.70
2022-10-20T10:44:50.458Z,5.95
2022-10-20T10:47:54.881Z,15.33
2022-10-20T10:50:48.191Z,9.85
2022-10-20T10:53:48.518Z,8.93
2022-10-20T10:56:24.605Z,6.30
2022-10-20T10:59:21.905Z,6.80
2022-10-20T11:02:22.779Z,6.97
2022-10-20T11:05:28.245Z,6.95
2022-10-20T11:08:30.796Z,8.88
2022-10-20T11:11:59.735Z,10.27
2022-10-20T11:15:08.621Z,10.30
2022-10-20T11:18:09.797Z,6.88
2022-10-20T11:20:53.082Z,8.10
2022-10-20T11:23:57.129Z,8.88
2022-10-20T11:26:35.111Z,5.75
2022-10-20T11:29:10.819Z,6.68
2022-10-20T11:31:54.734Z,7.32
2022-10-20T11:34:38.750Z,6.38
2022-10-20T11:37:24.923Z,5.88
2022-10-20T11:40:05.929Z,9.77
2022-10-20T11:42:53.800Z,6.93
2022-10-20T11:45:39.680Z,8.32
2022-10-20T11:48:52.476Z,8.02
2022-10-20T11:52:02.621Z,6.43
2022-10-20T11:55:03.415Z,8.57
2022-10-20T11:57:49.025Z,14.80
2022-10-20T12:00:27.154Z,7.18
2022-10-20T12:02:58.751Z,8.52
2022-10-20T12:05:56.778Z,7.95
2022-10-20T12:09:10.749Z,7.43
2022-10-20T12:12:15.061Z,8.00
2022-10-20T12:14:59.721Z,8.27
2022-10-20T12:17:42.490Z,6.70
2022-10-20T12:20:21.953Z,5.50
2022-10-20T12:22:53.730Z,10.80
2022-10-20T12:25:27.309Z,13.13
2022-10-20T12:28:22.962Z,7.45
2022-10-20T12:31:05.285Z,8.30
2022-10-20T12:33:53.333Z,11.35
2022-10-20T12:36:26.601Z,12.52
2022-10-20T12:39:12.186Z,6.53
2022-10-20T12:42:05.260Z,8.35
2022-10-20T12:44:45.644Z,8.93
2022-10-20T12:47:26.923Z,14.25
2022-10-20T12:50:00.958Z,7.53
2022-10-20T12:52:36.148Z,11.27
2022-10-20T12:55:18.595Z,6.75
2022-10-20T12:57:46.891Z,10.00
2022-10-20T13:00:22.126Z,7.53
2022-10-20T13:02:53.160Z,8.18
2022-10-20T13:05:20.337Z,7.20
2022-10-20T13:07:50.099Z,7.55
2022-10-20T13:10:35.504Z,8.90
2022-10-20T13:13:02.696Z,7.95
2022-10-20T13:15:36.227Z,14.10
2022-10-20T13:18:03.458Z,6.45
2022-10-20T13:21:01.563Z,9.35
2022-10-20T13:23:43.438Z,10.75
2022-10-20T13:26:30.859Z,13.30
2022-10-20T13:29:01.878Z,5.85
2022-10-20T13:31:29.939Z,7.55
2022-10-20T13:34:06.228Z,7.50
2022-10-20T13:37:02.104Z,6.55
2022-10-20T13:39:51.043Z,7.13
2022-10-20T13:42:42.534Z,9.13
2022-10-20T13:45:49.959Z,6.82
2022-10-20T13:48:55.419Z,9.93
2022-10-20T13:51:33.702Z,6.90
2022-10-20T13:54:07.133Z,6.60
2022-10-20T13:56:46.389Z,8.60
2022-10-20T14:02:03.857Z,7.15
2022-10-20T14:05:06.007Z,10.52
2022-10-20T14:07:46.010Z,11.80
2022-10-20T14:10:40.293Z,8.27
2022-10-20T14:13:17.615Z,6.50
2022-10-20T14:15:56.940Z,11.27
2022-10-20T14:18:29.493Z,7.07
2022-10-20T14:21:17.992Z,9.68
2022-10-20T14:23:49.287Z,7.22
2022-10-20T14:26:22.706Z,6.82
2022-10-20T14:28:52.218Z,7.25
2022-10-20T14:31:23.811Z,5.78
2022-10-20T14:33:53.059Z,5.20
2022-10-20T14:36:45.213Z,9.73
2022-10-20T14:39:40.823Z,8.82
2022-10-20T14:42:25.883Z,6.22
2022-10-20T14:44:56.997Z,6.15
2022-10-20T14:47:32.550Z,6.72
2022-10-20T14:50:00.450Z,8.43
2022-10-20T14:52:38.337Z,5.07
2022-10-20T15:36:20.050Z,9.27
2022-10-20T15:38:49.697Z,8.27
2022-10-20T15:41:35.679Z,12.27
2022-10-20T15:44:22.285Z,12.20
2022-10-20T15:46:55.799Z,14.68
2022-10-20T15:49:30.470Z,10.65
2022-10-20T15:51:58.106Z,10.60
2022-10-20T15:54:25.641Z,11.88
2022-10-20T15:56:52.935Z,17.38
2022-10-20T15:59:20.425Z,14.30
2022-10-20T16:01:47.613Z,10.25
2022-10-20T16:04:28.035Z,10.77
2022-10-20T16:06:57.931Z,15.32
2022-10-20T16:09:26.528Z,12.50
2022-10-20T16:11:55.243Z,13.32
2022-10-20T16:14:22.462Z,10.60
2022-10-20T16:16:49.899Z,13.02
2022-10-20T16:19:17.325Z,14.02
2022-10-20T16:21:44.606Z,13.85
2022-10-20T16:24:13.225Z,11.55
2022-10-20T16:26:41.798Z,10.45
2022-10-20T16:29:09.471Z,13.48
2022-10-20T16:31:36.739Z,13.63
2022-10-20T16:34:05.367Z,13.80
2022-10-20T16:36:32.788Z,11.02
2022-10-20T16:39:01.418Z,19.15
2022-10-20T16:41:28.772Z,16.55
2022-10-20T16:43:58.865Z,16.52
2022-10-20T16:46:29.462Z,17.95
2022-10-20T16:48:57.443Z,12.70
2022-10-20T16:51:27.653Z,15.07
2022-10-20T16:54:00.785Z,16.30
2022-10-20T16:56:30.493Z,14.15
2022-10-20T16:58:58.006Z,12.00
2022-10-20T17:01:25.472Z,19.67
2022-10-20T17:03:53.558Z,11.80
2022-10-20T17:06:25.694Z,11.15
2022-10-20T17:08:54.419Z,18.38
2022-10-20T17:11:30.574Z,12.00
2022-10-20T17:13:59.668Z,11.07
2022-10-20T17:16:31.939Z,15.02
2022-10-20T17:19:02.120Z,14.48
2022-10-20T17:21:33.896Z,14.13
2022-10-20T17:24:02.334Z,11.23
2022-10-20T17:29:01.462Z,14.02
2022-10-20T17:31:30.066Z,15.90
2022-10-20T17:36:27.319Z,15.40
2022-10-20T17:39:05.650Z,14.18
2022-10-20T17:41:35.989Z,13.70
2022-10-20T17:44:06.300Z,11.13
2022-10-20T17:46:36.740Z,14.55
2022-10-20T17:49:06.012Z,16.63
2022-10-20T17:51:35.281Z,15.63
2022-10-20T17:54:04.398Z,13.20
2022-10-20T17:56:37.011Z,14.38
2022-10-20T17:59:07.489Z,14.10
2022-10-20T18:01:43.068Z,13.15
2022-10-20T18:04:14.500Z,14.57
2022-10-20T18:06:43.461Z,18.63
2022-10-20T18:09:16.819Z,20.30
2022-10-20T18:11:49.901Z,14.55
2022-10-20T18:14:18.097Z,15.63
2022-10-20T18:16:46.143Z,14.93
2022-10-20T18:19:17.697Z,19.75
2022-10-20T18:21:45.490Z,17.88
2022-10-20T18:24:17.077Z,15.20
2022-10-20T18:26:45.835Z,15.70
2022-10-20T18:29:15.027Z,20.30
2022-10-20T18:31:51.006Z,21.50
2022-10-20T18:34:22.310Z,16.63
2022-10-20T18:36:51.637Z,17.45
2022-10-20T18:39:21.338Z,28.60
2022-10-20T18:41:54.188Z,16.75
2022-10-20T18:44:21.897Z,23.80
2022-10-20T18:46:49.524Z,20.55
2022-10-20T18:49:20.564Z,19.37
2022-10-20T18:51:48.515Z,20.55
2022-10-20T18:54:17.462Z,28.60
2022-10-20T18:56:45.133Z,25.73
2022-10-20T18:59:18.829Z,18.50
2022-10-20T19:01:48.415Z,24.17
2022-10-20T19:04:16.302Z,19.77
2022-10-20T19:06:49.627Z,20.48
2022-10-20T19:09:21.751Z,27.20
2022-10-20T19:11:56.735Z,21.30
2022-10-20T19:14:24.221Z,22.88
2022-10-20T19:16:53.147Z,25.23
2022-10-20T19:19:22.791Z,25.90
2022-10-20T19:21:50.020Z,21.50
2022-10-20T19:24:24.015Z,22.00
2022-10-20T19:27:24.959Z,22.70
2022-10-20T19:29:49.979Z,24.65
2022-10-20T19:32:17.842Z,18.58
2022-10-20T19:34:45.455Z,20.70
2022-10-20T19:37:13.630Z,18.42
2022-10-20T19:39:42.883Z,17.80
2022-10-20T19:42:11.232Z,16.90
2022-10-20T19:44:39.217Z,16.45
2022-10-20T19:47:08.085Z,18.17
2022-10-20T19:49:35.958Z,15.52
2022-10-20T19:52:05.880Z,14.60
2022-10-20T19:54:33.391Z,13.07
2022-10-20T19:57:01.079Z,13.53
2022-10-20T19:59:28.380Z,14.07
2022-10-20T20:01:55.730Z,11.65
2022-10-20T20:04:23.069Z,14.90
2022-10-20T20:06:50.467Z,12.63
2022-10-20T20:09:19.712Z,12.65
2022-10-20T20:11:47.000Z,10.93
2022-10-20T20:14:18.737Z,14.65
2022-10-20T20:16:47.262Z,12.52
2022-10-20T20:19:19.829Z,12.45
2022-10-20T20:21:47.347Z,14.27
2022-10-20T20:24:14.903Z,13.67
2022-10-20T20:26:44.636Z,12.10
2022-10-20T20:29:12.009Z,12.40
2022-10-20T20:31:40.992Z,9.50
2022-10-20T20:34:08.413Z,11.15
2022-10-20T20:36:35.663Z,14.88
2022-10-20T20:39:03.747Z,9.65
2022-10-20T20:41:31.313Z,13.80
2022-10-20T20:44:02.933Z,13.90
2022-10-20T20:46:34.105Z,16.80
2022-10-20T20:51:38.505Z,14.68
2022-10-20T20:54:06.150Z,12.98
2022-10-20T20:56:35.503Z,14.38
2022-10-20T20:59:03.625Z,13.07
2022-10-20T21:01:32.196Z,12.52
2022-10-20T21:04:04.459Z,10.55
2022-10-20T21:06:49.514Z,17.02
2022-10-20T21:09:21.975Z,10.75
2022-10-20T21:11:49.383Z,11.63
2022-10-20T21:14:16.805Z,13.00
2022-10-20T21:16:44.082Z,13.07
2022-10-20T21:19:12.120Z,13.43
2022-10-20T21:21:50.529Z,10.48
2022-10-20T21:24:19.022Z,13.88
2022-10-20T21:26:46.964Z,11.90
2022-10-20T21:29:14.335Z,12.77
2022-10-20T21:31:41.725Z,14.07
2022-10-20T21:34:11.095Z,10.13
2022-10-20T21:36:40.666Z,12.25
2022-10-20T21:39:15.491Z,13.45
2022-10-20T21:41:44.885Z,14.70
2022-10-20T21:44:17.254Z,13.70
2022-10-20T21:46:49.509Z,13.60
2022-10-20T21:49:20.652Z,11.82
2022-10-20T21:51:52.608Z,15.13
2022-10-20T21:54:24.458Z,13.90
2022-10-20T21:56:52.720Z,10.98
2022-10-20T21:59:38.827Z,10.25
2022-10-20T22:02:13.601Z,11.02
2022-10-20T22:04:40.821Z,11.30
2022-10-20T22:07:08.199Z,15.50
2022-10-20T22:09:35.776Z,10.27
2022-10-20T22:12:03.281Z,12.77
2022-10-20T22:14:30.890Z,14.85
2022-10-20T22:16:58.753Z,15.83
2022-10-20T22:19:27.459Z,11.25
2022-10-20T22:21:59.754Z,15.00
2022-10-20T22:24:27.906Z,12.90
2022-10-20T22:26:55.233Z,9.73
2022-10-20T22:29:23.447Z,11.18
2022-10-20T22:31:52.597Z,17.17
2022-10-20T22:34:20.246Z,13.10
2022-10-20T22:36:47.743Z,9.30
2022-10-20T22:39:15.210Z,9.60
2022-10-20T22:41:42.620Z,9.98
2022-10-20T22:44:10.917Z,14.07
2022-10-20T22:46:38.195Z,14.40
2022-10-20T22:49:05.551Z,13.43
2022-10-20T22:51:32.722Z,10.10
2022-10-20T22:53:59.937Z,13.25
2022-10-20T22:56:27.288Z,13.98
2022-10-20T22:58:55.143Z,9.48
2022-10-20T23:01:24.014Z,13.30
2022-10-20T23:03:51.869Z,11.02
2022-10-20T23:06:24.290Z,15.35
2022-10-20T23:08:55.367Z,9.50
2022-10-20T23:11:23.904Z,12.05
2022-10-20T23:13:51.336Z,12.60
2022-10-20T23:16:20.679Z,10.32
2022-10-20T23:18:48.228Z,11.57
2022-10-20T23:21:15.887Z,11.23
2022-10-20T23:23:44.220Z,11.02
2022-10-20T23:26:15.173Z,10.75
2022-10-20T23:28:42.517Z,13.02
2022-10-20T23:31:12.508Z,10.00
2022-10-20T23:33:41.627Z,13.35
2022-10-20T23:36:09.606Z,11.38
2022-10-20T23:38:37.458Z,11.10
2022-10-20T23:41:05.360Z,13.18
2022-10-20T23:43:33.579Z,12.18
2022-10-20T23:46:01.291Z,12.68
2022-10-20T23:48:28.784Z,15.45
2022-10-20T23:50:56.477Z,14.00
2022-10-20T23:53:24.842Z,10.43
2022-10-20T23:55:52.087Z,11.82
2022-10-20T23:58:23.183Z,11.65
